Time;durP1;ratioP1;P1;durP2;ratioP2;P2;SDS_P1;SDS_P2;PMS_P1;PMS_P2;Temp;Humidity;BMP_temperature;BMP_pressure;BME280_temperature;BME280_humidity;BME280_pressure;Samples;Min_cycle;Max_cycle;Signal;HPM_P1;HPM_P2
2023/01/26 00:01:13;;;;;;;5.03;4.70;;;2.80;99.90;;;;;;5057296;28;20179;-91
2023/01/26 00:03:39;;;;;;;12.33;6.07;;;2.80;99.90;;;;;;5040717;28;20240;-90
2023/01/26 00:06:07;;;;;;;10.00;5.97;;;2.80;99.90;;;;;;5055550;28;20253;-91
2023/01/26 00:08:37;;;;;;;10.80;5.07;;;2.80;99.90;;;;;;5038831;28;20580;-90
2023/01/26 00:11:04;;;;;;;4.30;4.00;;;2.80;99.90;;;;;;5057325;28;20233;-91
2023/01/26 00:13:30;;;;;;;9.07;5.70;;;2.80;99.90;;;;;;5024572;28;20214;-91
2023/01/26 00:15:56;;;;;;;11.53;7.30;;;2.90;99.90;;;;;;5057370;28;20245;-91
2023/01/26 00:18:22;;;;;;;6.70;4.87;;;2.80;99.90;;;;;;5021594;28;20796;-90
2023/01/26 00:20:53;;;;;;;8.90;7.87;;;2.80;99.90;;;;;;5040117;28;20690;-91
2023/01/26 00:23:19;;;;;;;7.33;6.13;;;2.90;99.90;;;;;;5057399;28;20256;-92
2023/01/26 00:25:45;;;;;;;6.50;5.87;;;2.90;99.90;;;;;;5022992;28;20202;-91
2023/01/26 00:28:10;;;;;;;4.77;4.47;;;2.90;99.90;;;;;;5039641;28;20198;-91
2023/01/26 00:30:36;;;;;;;5.03;4.73;;;2.90;99.90;;;;;;5037996;28;20210;-92
2023/01/26 00:33:02;;;;;;;7.40;6.57;;;2.80;99.90;;;;;;5039533;28;20224;-91
2023/01/26 00:35:27;;;;;;;14.20;5.90;;;2.90;99.90;;;;;;5040050;28;20222;-91
2023/01/26 00:37:53;;;;;;;9.60;6.63;;;2.90;99.90;;;;;;5039306;28;20308;-91
2023/01/26 00:40:19;;;;;;;5.57;5.00;;;3.00;99.90;;;;;;5041590;28;20190;-91
2023/01/26 00:42:45;;;;;;;8.13;5.40;;;2.90;99.90;;;;;;5041844;28;20202;-91
2023/01/26 00:45:11;;;;;;;5.23;4.50;;;2.90;99.90;;;;;;5023073;28;20222;-91
2023/01/26 00:47:36;;;;;;;8.57;5.70;;;2.90;99.90;;;;;;5040285;28;20217;-90
2023/01/26 00:50:03;;;;;;;11.23;3.73;;;3.00;99.90;;;;;;5037700;28;20236;-91
2023/01/26 00:52:28;;;;;;;9.07;6.63;;;3.00;99.90;;;;;;5055669;28;20747;-91
2023/01/26 00:54:54;;;;;;;6.27;4.73;;;3.00;99.90;;;;;;5024494;28;20193;-92
2023/01/26 00:57:20;;;;;;;15.50;5.70;;;3.00;99.90;;;;;;5039238;28;20285;-91
2023/01/26 00:59:46;;;;;;;5.63;5.13;;;3.10;99.90;;;;;;5040898;28;20250;-91
2023/01/26 01:02:11;;;;;;;6.27;5.83;;;3.10;99.90;;;;;;5040663;28;20205;-92
2023/01/26 01:04:37;;;;;;;18.40;7.87;;;3.20;99.90;;;;;;5038886;28;20211;-91
2023/01/26 01:07:03;;;;;;;4.27;3.90;;;3.20;99.90;;;;;;5039147;28;20182;-91
2023/01/26 01:09:29;;;;;;;14.00;9.57;;;3.20;99.90;;;;;;5039968;28;20398;-91
2023/01/26 01:11:55;;;;;;;4.13;3.67;;;3.10;99.90;;;;;;5041038;28;20220;-91
2023/01/26 01:14:20;;;;;;;7.33;6.10;;;3.10;99.90;;;;;;5039078;28;20574;-91
2023/01/26 01:16:47;;;;;;;6.70;6.20;;;3.10;99.90;;;;;;5038849;28;20201;-91
2023/01/26 01:19:16;;;;;;;5.07;3.33;;;3.10;99.90;;;;;;5040176;28;20190;-91
2023/01/26 01:21:43;;;;;;;9.30;5.53;;;3.10;99.90;;;;;;5021129;28;20193;-89
2023/01/26 01:24:10;;;;;;;9.67;8.67;;;3.20;99.90;;;;;;5038315;28;20769;-90
2023/01/26 01:26:36;;;;;;;5.83;5.33;;;3.20;99.90;;;;;;5037540;28;20225;-92
2023/01/26 01:29:02;;;;;;;3.93;3.63;;;3.20;99.90;;;;;;5055909;28;20278;-91
2023/01/26 01:31:28;;;;;;;7.60;4.77;;;3.30;99.90;;;;;;5037467;28;20218;-91
2023/01/26 01:33:55;;;;;;;10.40;6.87;;;3.20;99.90;;;;;;5040010;28;20274;-91
2023/01/26 01:36:22;;;;;;;7.83;5.03;;;3.30;99.90;;;;;;5038063;28;20333;-90
2023/01/26 01:38:48;;;;;;;9.37;4.13;;;3.30;99.90;;;;;;5021853;28;20714;-91
2023/01/26 01:41:19;;;;;;;9.50;7.87;;;3.30;99.90;;;;;;5053600;28;20206;-91
2023/01/26 01:43:48;;;;;;;5.90;5.00;;;3.30;99.90;;;;;;5036276;28;20214;-90
2023/01/26 01:46:18;;;;;;;7.47;6.83;;;3.40;99.90;;;;;;5037158;28;20182;-91
2023/01/26 01:48:49;;;;;;;5.93;5.40;;;3.40;99.90;;;;;;5038519;28;20235;-92
2023/01/26 01:51:37;;;;;;;5.00;4.50;;;3.50;99.90;;;;;;5054272;28;20234;-92
2023/01/26 01:54:10;;;;;;;7.57;6.10;;;3.50;99.90;;;;;;5054430;28;20703;-92
2023/01/26 01:56:40;;;;;;;12.83;4.80;;;3.40;99.90;;;;;;5038455;28;20226;-91
2023/01/26 01:59:10;;;;;;;4.90;4.07;;;3.50;99.90;;;;;;5036927;28;20258;-92
2023/01/26 02:01:36;;;;;;;5.97;4.07;;;3.50;99.90;;;;;;5038931;28;20347;-92
2023/01/26 02:04:05;;;;;;;20.40;9.20;;;3.50;99.90;;;;;;5023414;28;20214;-91
2023/01/26 02:06:48;;;;;;;9.70;7.77;;;3.60;99.90;;;;;;5055142;28;20206;-92
2023/01/26 02:12:22;;;;;;;14.53;6.87;;;3.70;99.90;;;;;;5028854;28;20218;-91
2023/01/26 02:14:50;;;;;;;7.13;5.77;;;3.80;99.90;;;;;;5056064;28;20229;-91
2023/01/26 02:17:16;;;;;;;5.77;5.23;;;3.80;99.90;;;;;;5053905;28;20214;-91
2023/01/26 02:20:03;;;;;;;4.40;4.10;;;3.90;99.90;;;;;;5020335;28;20232;-91
2023/01/26 02:22:46;;;;;;;9.83;5.37;;;3.90;99.90;;;;;;5038526;28;20683;-92
2023/01/26 02:25:27;;;;;;;6.17;5.63;;;3.90;99.90;;;;;;5052669;28;20753;-91
2023/01/26 02:27:53;;;;;;;5.23;4.83;;;3.90;99.90;;;;;;5054555;28;20174;-91
2023/01/26 02:30:21;;;;;;;7.67;6.17;;;3.90;99.90;;;;;;5038984;28;20232;-91
2023/01/26 02:32:47;;;;;;;6.43;5.70;;;4.00;99.90;;;;;;5037963;28;20214;-91
2023/01/26 02:35:13;;;;;;;12.20;6.97;;;4.10;99.90;;;;;;5037257;28;20275;-91
2023/01/26 02:37:39;;;;;;;12.30;5.00;;;4.20;99.90;;;;;;5037425;28;20210;-91
2023/01/26 02:40:16;;;;;;;11.90;8.00;;;4.30;99.90;;;;;;5037774;28;20205;-92
2023/01/26 02:42:43;;;;;;;13.87;7.70;;;4.30;99.90;;;;;;5055183;28;20185;-92
2023/01/26 02:45:12;;;;;;;10.43;6.33;;;4.30;99.90;;;;;;5038826;28;20586;-92
2023/01/26 02:47:39;;;;;;;6.30;4.70;;;4.40;99.90;;;;;;5052944;28;20227;-91
2023/01/26 02:50:09;;;;;;;9.47;4.73;;;4.50;99.90;;;;;;5038445;28;20236;-92
2023/01/26 02:52:35;;;;;;;7.30;4.80;;;4.50;99.90;;;;;;5019663;28;20230;-91
2023/01/26 02:57:45;;;;;;;4.47;3.53;;;4.70;99.90;;;;;;5042342;28;20210;-90
2023/01/26 03:00:23;;;;;;;4.37;4.07;;;4.80;99.90;;;;;;5040261;28;20222;-91
2023/01/26 03:02:52;;;;;;;9.27;6.20;;;4.90;99.90;;;;;;5041335;28;20214;-91
2023/01/26 03:05:18;;;;;;;9.77;3.27;;;5.20;99.90;;;;;;5056412;28;20218;-92
2023/01/26 03:07:47;;;;;;;5.47;1.93;;;5.40;99.90;;;;;;5041699;28;20217;-91
2023/01/26 03:10:15;;;;;;;2.73;2.30;;;5.50;99.90;;;;;;5041827;28;20226;-92
2023/01/26 03:12:41;;;;;;;4.27;2.83;;;5.60;99.90;;;;;;5041685;28;20276;-91
2023/01/26 03:27:25;;;;;;;1.97;1.27;;;5.90;99.90;;;;;;5040767;28;20250;-92
2023/01/26 03:28:59;;;;;;;2.43;1.37;;;6.50;99.90;;;;;;5039079;28;20210;-92
2023/01/26 03:31:25;;;;;;;2.00;0.87;;;6.50;99.90;;;;;;5040834;28;20211;-91
2023/01/26 03:33:51;;;;;;;2.97;2.67;;;6.50;99.90;;;;;;5041549;28;20229;-91
2023/01/26 03:36:16;;;;;;;0.87;0.87;;;6.50;99.90;;;;;;5024185;28;20313;-92
2023/01/26 03:38:42;;;;;;;7.33;1.53;;;6.50;99.90;;;;;;5039553;28;20214;-91
2023/01/26 03:57:36;;;;;;;2.83;1.20;;;6.60;99.90;;;;;;5040094;28;20214;-91
2023/01/26 04:00:03;;;;;;;3.00;2.00;;;6.60;99.90;;;;;;5040051;28;20314;-91
2023/01/26 04:08:23;;;;;;;1.10;1.03;;;6.50;99.90;;;;;;5038392;28;20217;-91
2023/01/26 04:10:52;;;;;;;12.20;3.17;;;6.40;99.90;;;;;;5039232;28;20227;-91
2023/01/26 04:21:34;;;;;;;1.90;1.80;;;6.30;99.90;;;;;;5024712;28;20283;-91
2023/01/26 04:24:08;;;;;;;0.57;0.57;;;6.20;99.90;;;;;;5056027;28;20226;-91
2023/01/26 04:26:35;;;;;;;9.37;2.53;;;6.20;99.90;;;;;;5056110;28;20217;-91
2023/01/26 04:29:08;;;;;;;7.57;2.57;;;6.10;99.90;;;;;;5041221;28;20221;-90
2023/01/26 04:31:34;;;;;;;1.57;1.50;;;6.10;99.90;;;;;;5055089;28;20214;-91
2023/01/26 04:34:00;;;;;;;4.17;1.17;;;6.00;99.90;;;;;;5039231;28;20187;-90
2023/01/26 04:36:26;;;;;;;2.00;0.77;;;6.00;99.90;;;;;;5020713;28;20583;-91
2023/01/26 04:38:52;;;;;;;10.63;1.30;;;5.90;99.90;;;;;;5036727;28;20218;-91
2023/01/26 04:41:18;;;;;;;10.70;1.70;;;5.90;99.90;;;;;;5055831;28;20312;-92
2023/01/26 04:43:44;;;;;;;3.57;1.43;;;5.90;99.90;;;;;;5040550;28;20353;-91
2023/01/26 04:46:10;;;;;;;9.30;1.87;;;5.90;99.90;;;;;;5024479;28;20214;-92
2023/01/26 04:48:36;;;;;;;0.83;0.83;;;5.80;99.90;;;;;;5042782;28;20190;-91
2023/01/26 04:51:10;;;;;;;10.07;0.87;;;5.80;99.90;;;;;;5038945;28;20262;-91
2023/01/26 04:53:36;;;;;;;16.77;0.73;;;5.70;99.90;;;;;;5054752;28;20252;-92
2023/01/26 04:56:02;;;;;;;0.30;0.30;;;5.70;99.90;;;;;;5023664;28;20230;-91
2023/01/26 04:58:31;;;;;;;4.77;2.33;;;5.60;99.90;;;;;;5038713;28;20276;-91
2023/01/26 05:00:57;;;;;;;2.13;1.03;;;5.50;99.90;;;;;;5040506;28;20226;-91
2023/01/26 05:03:29;;;;;;;0.57;0.57;;;5.50;99.90;;;;;;5039504;28;20217;-91
2023/01/26 05:05:57;;;;;;;1.53;1.33;;;5.50;99.90;;;;;;5022691;28;21141;-91
2023/01/26 05:08:23;;;;;;;11.53;1.83;;;5.40;99.90;;;;;;5038305;28;20305;-91
2023/01/26 05:10:51;;;;;;;1.13;1.13;;;5.30;99.90;;;;;;5039222;28;20285;-91
2023/01/26 05:13:17;;;;;;;8.97;1.23;;;5.30;99.90;;;;;;5037690;28;20742;-91
2023/01/26 05:15:43;;;;;;;1.63;1.30;;;5.20;99.90;;;;;;5037478;28;20187;-91
2023/01/26 05:18:09;;;;;;;0.90;0.90;;;5.30;99.90;;;;;;5047815;28;20229;-92
2023/01/26 05:20:35;;;;;;;2.20;2.03;;;5.30;99.90;;;;;;5055417;28;20210;-91
2023/01/26 05:23:01;;;;;;;4.00;1.57;;;5.30;99.90;;;;;;5040081;28;20275;-91
2023/01/26 05:25:27;;;;;;;0.80;0.80;;;5.30;99.90;;;;;;5022226;28;20213;-91
2023/01/26 05:27:52;;;;;;;0.80;0.73;;;5.40;99.90;;;;;;5040463;28;20647;-91
2023/01/26 05:30:19;;;;;;;2.67;1.37;;;5.50;99.90;;;;;;5038325;28;20687;-91
2023/01/26 05:32:45;;;;;;;1.63;1.63;;;5.50;99.90;;;;;;5018804;28;20313;-91
2023/01/26 05:35:10;;;;;;;9.63;1.40;;;5.50;99.90;;;;;;5036609;28;20288;-92
2023/01/26 05:37:41;;;;;;;1.43;0.87;;;5.50;99.90;;;;;;5056421;28;20207;-92
2023/01/26 05:40:11;;;;;;;2.13;0.73;;;5.50;99.90;;;;;;5057041;28;20193;-92
2023/01/26 05:42:37;;;;;;;6.10;1.10;;;5.60;99.90;;;;;;5055185;28;20839;-92
2023/01/26 05:45:03;;;;;;;1.10;0.63;;;5.70;99.90;;;;;;5041241;28;20255;-92
2023/01/26 05:47:32;;;;;;;8.67;1.20;;;5.70;99.90;;;;;;5016776;28;20256;-93
2023/01/26 05:49:58;;;;;;;0.40;0.40;;;5.80;99.90;;;;;;5023115;28;20226;-93
2023/01/26 05:52:24;;;;;;;6.57;1.67;;;5.80;99.90;;;;;;5040195;28;20206;-92
2023/01/26 05:54:50;;;;;;;1.20;1.10;;;5.90;99.90;;;;;;5022047;28;20329;-92
2023/01/26 05:57:16;;;;;;;7.43;2.87;;;5.90;99.90;;;;;;5038430;28;20227;-92
2023/01/26 05:59:42;;;;;;;10.13;0.80;;;5.80;99.90;;;;;;5038804;28;20271;-92
2023/01/26 06:02:11;;;;;;;0.67;0.40;;;5.70;99.90;;;;;;5040202;28;20447;-93
2023/01/26 06:04:37;;;;;;;13.67;1.43;;;5.70;99.90;;;;;;5057167;28;20699;-92
2023/01/26 06:07:04;;;;;;;0.67;0.43;;;5.60;99.90;;;;;;5047165;28;20277;-92
2023/01/26 06:09:29;;;;;;;0.43;0.30;;;5.60;99.90;;;;;;5039269;28;20210;-93
2023/01/26 06:11:56;;;;;;;2.10;2.00;;;5.60;99.90;;;;;;5040816;28;20214;-92
2023/01/26 06:14:22;;;;;;;2.73;0.97;;;5.50;99.90;;;;;;5041648;28;20279;-91
2023/01/26 06:16:48;;;;;;;1.03;1.03;;;5.40;99.90;;;;;;5041720;28;20616;-92
2023/01/26 06:19:14;;;;;;;1.47;1.07;;;5.50;99.90;;;;;;5020283;28;20523;-93
2023/01/26 06:21:39;;;;;;;4.87;0.77;;;5.50;99.90;;;;;;5058831;28;20190;-93
2023/01/26 06:24:06;;;;;;;1.37;1.37;;;5.50;99.90;;;;;;5054522;28;20222;-92
2023/01/26 06:26:32;;;;;;;5.93;1.30;;;5.60;99.90;;;;;;5023978;28;20218;-94
2023/01/26 06:28:57;;;;;;;1.03;1.03;;;5.60;99.90;;;;;;5039063;28;20219;-92
2023/01/26 06:31:23;;;;;;;12.03;2.23;;;5.60;99.90;;;;;;5042909;28;20368;-92
2023/01/26 06:33:51;;;;;;;2.47;1.20;;;5.60;99.90;;;;;;5043459;28;20313;-93
2023/01/26 06:36:17;;;;;;;0.60;0.60;;;5.70;99.90;;;;;;5026772;28;20677;-93
2023/01/26 06:38:51;;;;;;;0.67;0.67;;;5.80;99.90;;;;;;5040724;28;20289;-91
2023/01/26 06:41:18;;;;;;;0.37;0.37;;;5.80;99.90;;;;;;5043269;28;20217;-93
2023/01/26 06:43:46;;;;;;;7.93;1.07;;;5.80;99.90;;;;;;5045848;28;20307;-92
2023/01/26 06:46:12;;;;;;;5.40;1.00;;;5.80;99.90;;;;;;5058106;28;20219;-92
2023/01/26 06:48:38;;;;;;;0.23;0.23;;;5.70;99.90;;;;;;5043824;28;20234;-92
2023/01/26 06:51:19;;;;;;;0.67;0.57;;;5.60;99.90;;;;;;5039776;28;20226;-91
2023/01/26 06:53:50;;;;;;;1.30;1.27;;;5.60;99.90;;;;;;5059058;28;20252;-91
2023/01/26 06:56:22;;;;;;;6.03;2.20;;;5.50;99.90;;;;;;5057563;28;20231;-92
2023/01/26 06:58:49;;;;;;;0.40;0.40;;;5.40;99.90;;;;;;5010102;28;20210;-92
2023/01/26 07:01:23;;;;;;;1.77;0.67;;;5.50;99.90;;;;;;5044515;28;20631;-92
2023/01/26 07:03:51;;;;;;;10.90;1.23;;;5.50;99.90;;;;;;5041633;28;20174;-91
2023/01/26 07:06:17;;;;;;;0.90;0.90;;;5.30;99.90;;;;;;5046267;28;20232;-92
2023/01/26 07:08:43;;;;;;;11.23;1.43;;;5.30;99.90;;;;;;5045445;28;20221;-91
2023/01/26 07:11:10;;;;;;;3.50;1.80;;;5.30;99.90;;;;;;5043935;28;20238;-92
2023/01/26 07:13:35;;;;;;;1.43;0.73;;;5.40;99.90;;;;;;5040040;28;20221;-92
2023/01/26 07:16:06;;;;;;;2.17;1.20;;;5.40;99.90;;;;;;5042956;28;20768;-91
2023/01/26 07:18:32;;;;;;;1.13;1.10;;;5.40;99.90;;;;;;5060126;28;20201;-92
2023/01/26 07:21:03;;;;;;;9.10;0.73;;;5.50;99.90;;;;;;5041063;28;20240;-91
2023/01/26 07:23:29;;;;;;;1.47;1.13;;;5.60;99.90;;;;;;5041952;28;20278;-94
2023/01/26 07:25:55;;;;;;;0.43;0.43;;;5.60;99.90;;;;;;5027185;28;20214;-93
2023/01/26 07:28:21;;;;;;;26.87;0.90;;;5.50;99.90;;;;;;5059396;28;20580;-93
2023/01/26 07:30:48;;;;;;;1.07;1.07;;;5.50;99.90;;;;;;5026416;28;20780;-94
2023/01/26 07:33:14;;;;;;;1.33;0.63;;;5.50;99.90;;;;;;5040760;28;20317;-92
2023/01/26 07:35:40;;;;;;;0.53;0.53;;;5.50;99.90;;;;;;5043742;28;20215;-91
2023/01/26 07:38:06;;;;;;;9.00;0.90;;;5.50;99.90;;;;;;5041848;28;20218;-92
2023/01/26 07:40:33;;;;;;;0.50;0.50;;;5.40;99.90;;;;;;5024366;28;20265;-93
2023/01/26 07:42:59;;;;;;;1.40;0.87;;;5.40;99.90;;;;;;5022116;28;20197;-91
2023/01/26 07:45:25;;;;;;;0.50;0.50;;;5.40;99.90;;;;;;5040360;28;20222;-91
2023/01/26 07:47:54;;;;;;;3.33;2.03;;;5.30;99.90;;;;;;5057449;28;20751;-92
2023/01/26 07:50:20;;;;;;;0.50;0.50;;;5.30;99.90;;;;;;5039789;28;20233;-91
2023/01/26 07:52:47;;;;;;;1.53;1.43;;;5.30;99.90;;;;;;5020415;28;20287;-92
2023/01/26 07:55:13;;;;;;;1.20;1.20;;;5.40;99.90;;;;;;5057473;28;20183;-91
2023/01/26 07:57:39;;;;;;;0.30;0.30;;;5.40;99.90;;;;;;5041264;28;20183;-91
2023/01/26 08:00:06;;;;;;;1.57;1.47;;;5.50;99.90;;;;;;5039811;28;20197;-90
2023/01/26 08:02:32;;;;;;;9.63;0.77;;;5.80;99.90;;;;;;5023311;28;20245;-90
2023/01/26 08:04:59;;;;;;;2.63;2.40;;;6.00;99.90;;;;;;5036098;28;20786;-91
2023/01/26 08:07:25;;;;;;;0.90;0.90;;;6.30;99.90;;;;;;5041334;28;20759;-94
2023/01/26 08:09:51;;;;;;;1.03;1.03;;;6.70;99.90;;;;;;5060286;28;20678;-90
2023/01/26 08:12:17;;;;;;;0.53;0.53;;;7.00;99.90;;;;;;5040620;28;20248;-93
2023/01/26 08:14:51;;;;;;;5.37;1.23;;;7.50;99.90;;;;;;5034820;28;20222;-93
2023/01/26 08:17:21;;;;;;;0.33;0.33;;;7.90;99.90;;;;;;5055564;28;20218;-90
2023/01/26 08:19:47;;;;;;;0.63;0.60;;;8.00;99.90;;;;;;5042493;28;20226;-91
2023/01/26 08:22:13;;;;;;;12.70;1.43;;;8.10;99.90;;;;;;5042363;28;20190;-93
2023/01/26 08:24:47;;;;;;;4.43;0.33;;;8.10;99.90;;;;;;5057437;28;20289;-92
2023/01/26 08:27:14;;;;;;;18.23;1.07;;;8.20;99.90;;;;;;5040098;28;20691;-92
2023/01/26 08:29:40;;;;;;;12.60;2.60;;;8.20;99.90;;;;;;5040917;28;20378;-92
2023/01/26 08:32:07;;;;;;;7.93;0.93;;;8.00;99.90;;;;;;5038147;28;20301;-92
2023/01/26 08:34:34;;;;;;;1.83;1.33;;;7.60;99.90;;;;;;5024702;28;20218;-93
2023/01/26 08:37:00;;;;;;;5.83;1.10;;;7.40;99.90;;;;;;5042771;28;20784;-93
2023/01/26 08:39:27;;;;;;;4.53;0.57;;;7.10;99.90;;;;;;5055865;28;20198;-93
2023/01/26 08:41:54;;;;;;;1.57;1.47;;;7.00;99.90;;;;;;5042445;28;20214;-92
2023/01/26 08:44:20;;;;;;;6.27;1.60;;;6.80;99.90;;;;;;5042953;28;20221;-93
2023/01/26 08:46:45;;;;;;;1.17;0.80;;;6.70;99.90;;;;;;5038072;28;20206;-92
2023/01/26 08:49:11;;;;;;;3.60;1.80;;;6.70;99.90;;;;;;5031755;28;20213;-90
2023/01/26 08:51:37;;;;;;;6.07;1.03;;;7.00;99.90;;;;;;5024830;28;20209;-91
2023/01/26 08:54:09;;;;;;;0.97;0.97;;;7.00;99.90;;;;;;5056564;28;20636;-93
2023/01/26 08:56:35;;;;;;;2.93;1.00;;;7.20;99.90;;;;;;5022114;28;20210;-91
2023/01/26 08:59:01;;;;;;;2.00;1.80;;;7.40;99.90;;;;;;5031431;28;20285;-90
2023/01/26 09:01:30;;;;;;;0.33;0.33;;;7.50;99.90;;;;;;5030049;28;20210;-91
2023/01/26 09:03:55;;;;;;;2.10;1.63;;;7.50;99.90;;;;;;5028566;28;20233;-93
2023/01/26 09:06:22;;;;;;;11.73;1.17;;;7.50;99.90;;;;;;5037746;28;20242;-90
2023/01/26 09:08:47;;;;;;;2.13;1.07;;;7.60;99.90;;;;;;5042834;28;20233;-93
2023/01/26 09:11:25;;;;;;;0.67;0.67;;;7.70;99.90;;;;;;5041897;28;20238;-92
2023/01/26 09:13:57;;;;;;;0.87;0.57;;;7.80;99.90;;;;;;5045583;28;20214;-92
2023/01/26 09:16:24;;;;;;;1.40;1.40;;;7.80;99.90;;;;;;5040773;28;20724;-92
2023/01/26 09:18:51;;;;;;;5.93;1.17;;;7.70;99.90;;;;;;5041863;28;20189;-92
2023/01/26 09:21:22;;;;;;;2.33;0.73;;;7.70;99.90;;;;;;5038858;28;20260;-92
2023/01/26 09:23:51;;;;;;;0.40;0.40;;;7.70;99.90;;;;;;5024910;28;20300;-93
2023/01/26 09:26:19;;;;;;;0.30;0.30;;;7.70;99.90;;;;;;5038767;28;20212;-93
2023/01/26 09:28:49;;;;;;;3.83;0.27;;;7.70;99.90;;;;;;5040698;28;20212;-92
2023/01/26 09:31:15;;;;;;;1.33;1.33;;;7.70;99.90;;;;;;5039966;28;20218;-92
2023/01/26 09:33:43;;;;;;;0.17;0.17;;;7.80;99.90;;;;;;5056606;28;20214;-91
2023/01/26 09:36:15;;;;;;;1.17;1.10;;;7.80;99.90;;;;;;5056293;28;20210;-93
2023/01/26 09:38:41;;;;;;;9.23;0.80;;;7.80;99.90;;;;;;5038898;28;20309;-92
2023/01/26 09:41:26;;;;;;;2.97;0.50;;;7.80;99.90;;;;;;5030989;28;20699;-91
2023/01/26 09:43:58;;;;;;;0.63;0.63;;;7.90;99.90;;;;;;5059289;28;20245;-93
2023/01/26 09:46:49;;;;;;;2.27;1.23;;;7.90;99.90;;;;;;5056918;28;20210;-94
2023/01/26 09:49:35;;;;;;;3.80;1.13;;;7.90;99.90;;;;;;5057094;28;20229;-92
2023/01/26 09:52:12;;;;;;;10.50;2.60;;;8.00;99.90;;;;;;5057567;28;20190;-91
2023/01/26 09:54:43;;;;;;;1.30;1.20;;;7.90;99.90;;;;;;5038548;28;20241;-93
2023/01/26 09:57:15;;;;;;;2.03;1.00;;;7.90;99.90;;;;;;5053827;28;20226;-94
2023/01/26 09:59:57;;;;;;;7.67;2.13;;;7.90;99.90;;;;;;5040414;28;20215;-92
2023/01/26 10:02:45;;;;;;;4.60;0.70;;;7.80;99.90;;;;;;5043217;28;20209;-94
2023/01/26 10:05:23;;;;;;;2.43;1.27;;;7.80;99.90;;;;;;5058778;28;20229;-94
2023/01/26 10:07:52;;;;;;;0.63;0.30;;;7.90;99.90;;;;;;5045302;28;20223;-93
2023/01/26 10:10:25;;;;;;;3.40;1.80;;;7.90;99.90;;;;;;5047259;28;20259;-94
2023/01/26 10:13:03;;;;;;;0.30;0.30;;;7.90;99.90;;;;;;5051571;28;20159;-92
2023/01/26 10:16:05;;;;;;;7.23;1.83;;;8.00;99.90;;;;;;5023671;28;20267;-93
2023/01/26 10:18:35;;;;;;;0.40;0.37;;;8.00;99.90;;;;;;5025234;28;20237;-93
2023/01/26 10:21:12;;;;;;;1.00;0.70;;;8.00;99.90;;;;;;5042200;28;20214;-94
2023/01/26 10:23:46;;;;;;;3.60;0.83;;;8.00;99.90;;;;;;5041423;28;20264;-94
2023/01/26 10:26:14;;;;;;;5.80;2.03;;;8.00;99.90;;;;;;5056473;28;20233;-95
2023/01/26 10:28:42;;;;;;;0.60;0.60;;;8.10;99.90;;;;;;5055881;28;20282;-95
2023/01/26 10:31:36;;;;;;;0.60;0.60;;;8.20;99.90;;;;;;5023280;28;20676;-93
2023/01/26 10:34:21;;;;;;;0.33;0.33;;;8.10;99.90;;;;;;5023540;28;20183;-95
2023/01/26 10:36:47;;;;;;;9.43;0.93;;;8.00;99.90;;;;;;5023878;28;20663;-93
2023/01/26 10:39:15;;;;;;;10.83;1.07;;;8.00;99.90;;;;;;5039779;28;20241;-93
2023/01/26 10:41:56;;;;;;;1.50;1.50;;;8.10;99.90;;;;;;5060983;28;20219;-95
2023/01/26 10:44:42;;;;;;;0.93;0.93;;;8.10;99.90;;;;;;5042826;28;20210;-93
2023/01/26 10:47:20;;;;;;;2.10;0.67;;;8.20;99.90;;;;;;5026445;28;20218;-93
2023/01/26 10:49:50;;;;;;;1.27;1.27;;;8.10;99.90;;;;;;5065554;28;20276;-94
2023/01/26 10:52:23;;;;;;;0.60;0.60;;;8.10;99.90;;;;;;5061312;28;20689;-94
2023/01/26 10:55:21;;;;;;;0.10;0.10;;;8.00;99.90;;;;;;5043269;28;20329;-93
2023/01/26 10:57:51;;;;;;;0.20;0.20;;;8.00;99.90;;;;;;5048268;28;20241;-93
2023/01/26 11:00:29;;;;;;;0.40;0.40;;;7.90;99.90;;;;;;5046028;28;20356;-93
2023/01/26 11:03:21;;;;;;;6.13;1.13;;;7.90;99.90;;;;;;5060900;28;20216;-93
2023/01/26 11:06:08;;;;;;;0.87;0.87;;;7.80;99.90;;;;;;5055664;28;20225;-92
2023/01/26 11:08:38;;;;;;;0.40;0.37;;;7.80;99.90;;;;;;5034524;23;20237;-86
2023/01/26 11:11:10;;;;;;;8.60;1.00;;;7.90;99.90;;;;;;4945034;28;20275;-87
2023/01/26 11:13:36;;;;;;;0.10;0.10;;;8.00;99.90;;;;;;4972893;28;20229;-86
2023/01/26 11:16:23;;;;;;;0.57;0.57;;;8.10;99.90;;;;;;4956866;28;20237;-82
2023/01/26 11:19:10;;;;;;;0.53;0.53;;;8.10;99.90;;;;;;4967251;28;20534;-83
2023/01/26 11:21:46;;;;;;;0.77;0.63;;;8.30;99.90;;;;;;4955829;28;20231;-82
2023/01/26 11:24:23;;;;;;;6.30;0.40;;;8.60;99.90;;;;;;4973715;28;20277;-82
2023/01/26 11:27:08;;;;;;;4.47;0.70;;;8.60;99.90;;;;;;4958388;28;20224;-83
2023/01/26 11:29:52;;;;;;;3.40;0.93;;;8.50;99.90;;;;;;4957795;28;20244;-83
2023/01/26 11:32:24;;;;;;;0.50;0.40;;;8.60;99.90;;;;;;4959704;28;20216;-83
2023/01/26 11:35:07;;;;;;;1.90;1.30;;;8.60;99.90;;;;;;4955864;28;20240;-83
2023/01/26 11:37:43;;;;;;;0.33;0.33;;;8.60;99.90;;;;;;4958304;28;20224;-82
2023/01/26 11:40:27;;;;;;;1.50;1.17;;;8.70;99.90;;;;;;4958847;28;20375;-83
2023/01/26 11:43:23;;;;;;;0.10;0.10;;;8.70;99.90;;;;;;4955787;28;20193;-84
2023/01/26 11:46:20;;;;;;;12.30;1.87;;;8.70;99.90;;;;;;4957733;28;20283;-83
2023/01/26 11:49:19;;;;;;;1.03;0.93;;;8.60;99.90;;;;;;4954615;28;20224;-84
2023/01/26 11:52:04;;;;;;;5.03;0.43;;;8.50;99.90;;;;;;4970460;28;20264;-85
2023/01/26 11:55:01;;;;;;;0.37;0.37;;;8.30;99.90;;;;;;4954065;28;20235;-85
2023/01/26 11:57:48;;;;;;;2.10;1.23;;;8.20;99.90;;;;;;4947180;28;20237;-86
2023/01/26 12:00:32;;;;;;;0.20;0.20;;;8.30;99.90;;;;;;4956455;28;20765;-83
2023/01/26 12:03:04;;;;;;;0.20;0.20;;;8.20;99.90;;;;;;4970304;28;20224;-86
2023/01/26 12:05:41;;;;;;;5.00;0.73;;;8.30;99.90;;;;;;4968567;28;20609;-84
2023/01/26 12:08:17;;;;;;;3.10;2.47;;;8.20;99.90;;;;;;4969952;28;20297;-83
2023/01/26 12:11:21;;;;;;;2.50;0.60;;;8.20;99.90;;;;;;4954859;28;20244;-84
2023/01/26 12:14:04;;;;;;;1.97;1.40;;;8.20;99.90;;;;;;4954136;28;20220;-86
2023/01/26 12:16:42;;;;;;;7.93;0.37;;;8.40;99.90;;;;;;4953742;28;20228;-85
2023/01/26 12:19:22;;;;;;;0.50;0.50;;;8.50;99.90;;;;;;4965765;28;20248;-86
2023/01/26 12:21:50;;;;;;;2.27;0.27;;;8.60;99.90;;;;;;4955430;28;20193;-87
2023/01/26 12:24:24;;;;;;;0.53;0.53;;;8.50;99.90;;;;;;4956928;28;20304;-90
2023/01/26 12:26:52;;;;;;;10.27;1.07;;;8.50;99.90;;;;;;4954677;28;20287;-87
2023/01/26 12:29:32;;;;;;;10.17;1.00;;;8.60;99.90;;;;;;4970103;28;20225;-89
2023/01/26 12:32:12;;;;;;;0.40;0.40;;;8.60;99.90;;;;;;4955891;28;20232;-87
2023/01/26 12:34:38;;;;;;;1.03;0.40;;;8.50;99.90;;;;;;4955619;28;20231;-88
2023/01/26 12:37:25;;;;;;;0.50;0.40;;;8.50;99.90;;;;;;4936627;28;20591;-89
2023/01/26 12:40:12;;;;;;;0.30;0.30;;;8.40;99.90;;;;;;4963177;28;20193;-90
2023/01/26 12:42:46;;;;;;;0.40;0.40;;;8.30;99.90;;;;;;4954978;28;20480;-87
2023/01/26 12:45:24;;;;;;;0.10;0.10;;;8.20;99.90;;;;;;4962772;28;20749;-89
2023/01/26 12:47:54;;;;;;;0.40;0.40;;;8.30;99.90;;;;;;4955485;28;20212;-88
2023/01/26 12:50:41;;;;;;;4.87;0.47;;;8.50;99.90;;;;;;4956930;28;20241;-90
2023/01/26 12:53:20;;;;;;;0.10;0.10;;;8.70;99.90;;;;;;4958013;28;20287;-93
2023/01/26 12:56:09;;;;;;;0.20;0.20;;;8.60;99.90;;;;;;4957615;28;20228;-92
2023/01/26 12:58:43;;;;;;;0.20;0.20;;;8.60;99.90;;;;;;4958457;28;20213;-90
2023/01/26 13:01:15;;;;;;;0.33;0.30;;;8.50;99.90;;;;;;4956081;28;20192;-88
2023/01/26 13:03:57;;;;;;;0.10;0.10;;;8.40;99.90;;;;;;4956033;28;20181;-89
2023/01/26 13:06:28;;;;;;;0.70;0.70;;;8.40;99.90;;;;;;4953635;28;20232;-88
2023/01/26 13:08:56;;;;;;;4.83;1.23;;;8.30;99.90;;;;;;4956281;28;20320;-87
2023/01/26 13:11:43;;;;;;;1.57;1.57;;;8.20;99.90;;;;;;4971494;28;20269;-90
2023/01/26 13:14:32;;;;;;;0.30;0.20;;;8.30;99.90;;;;;;4969701;28;20225;-89
2023/01/26 13:17:16;;;;;;;0.13;0.13;;;8.20;99.90;;;;;;4969572;28;20605;-89
2023/01/26 13:19:42;;;;;;;0.30;0.30;;;8.20;99.90;;;;;;4970508;28;20337;-89
2023/01/26 13:22:22;;;;;;;0.43;0.43;;;8.20;99.90;;;;;;4950217;28;20574;-91
2023/01/26 13:24:54;;;;;;;4.37;0.77;;;8.20;99.90;;;;;;4971387;28;20213;-87
2023/01/26 13:27:42;;;;;;;0.30;0.30;;;8.20;99.90;;;;;;4954098;28;20215;-88
2023/01/26 13:30:48;;;;;;;12.90;1.47;;;8.20;99.90;;;;;;4966610;28;20316;-89
2023/01/26 13:33:23;;;;;;;0.33;0.33;;;8.20;99.90;;;;;;4948741;28;20231;-90
2023/01/26 13:35:51;;;;;;;4.07;1.17;;;8.20;99.90;;;;;;4969368;28;20263;-89
2023/01/26 13:38:38;;;;;;;5.70;0.43;;;8.20;99.90;;;;;;4952718;28;20757;-88
2023/01/26 13:41:14;;;;;;;0.60;0.43;;;8.10;99.90;;;;;;4953164;28;20225;-93
2023/01/26 13:43:45;;;;;;;0.67;0.67;;;8.00;99.90;;;;;;4971573;28;20367;-88
2023/01/26 13:46:16;;;;;;;0.50;0.50;;;8.00;99.90;;;;;;4962657;28;20184;-87
2023/01/26 13:48:52;;;;;;;2.53;1.07;;;8.00;99.90;;;;;;4958013;28;20181;-90
2023/01/26 13:51:29;;;;;;;2.83;0.60;;;8.00;99.90;;;;;;4957090;28;20301;-91
2023/01/26 13:54:00;;;;;;;0.70;0.70;;;7.90;99.90;;;;;;4971649;28;20830;-89
2023/01/26 13:56:28;;;;;;;0.60;0.60;;;7.90;99.90;;;;;;4970220;28;21167;-89
2023/01/26 13:59:06;;;;;;;0.30;0.30;;;7.90;99.90;;;;;;4953145;28;20228;-88
2023/01/26 14:01:33;;;;;;;0.60;0.60;;;7.90;99.90;;;;;;4955993;28;20255;-88
2023/01/26 14:04:06;;;;;;;1.20;0.63;;;8.00;99.90;;;;;;4940136;28;20186;-91